createdAt,value
2022-11-05T00:03:02.823Z,94287.94
2022-11-05T00:06:09.828Z,94298.97
2022-11-05T00:09:01.889Z,94283.66
2022-11-05T00:12:06.823Z,94294.72
2022-11-05T00:14:58.559Z,94302.41
2022-11-05T00:17:44.835Z,94300.72
2022-11-05T00:20:24.804Z,94292.19
2022-11-05T00:23:37.877Z,94283.66
2022-11-05T00:26:31.825Z,94290.44
2022-11-05T00:29:18.827Z,94275.97
2022-11-05T00:31:51.903Z,94269.09
2022-11-05T00:34:38.815Z,94271.66
2022-11-05T00:37:11.901Z,94264.03
2022-11-05T00:39:58.830Z,94259.72
2022-11-05T00:42:56.826Z,94258.00
2022-11-05T00:45:50.834Z,94270.78
2022-11-05T00:48:55.879Z,94277.59
2022-11-05T00:51:28.912Z,94281.84
2022-11-05T00:54:17.930Z,94278.41
2022-11-05T00:57:03.456Z,94278.41
2022-11-05T00:59:50.821Z,94276.66
2022-11-05T01:02:23.997Z,94274.09
2022-11-05T01:05:10.831Z,94283.41
2022-11-05T01:07:43.902Z,94288.50
2022-11-05T01:10:30.838Z,94277.44
2022-11-05T01:13:07.547Z,94285.94
2022-11-05T01:16:03.875Z,94294.50
2022-11-05T01:18:50.846Z,94288.59
2022-11-05T01:21:30.862Z,94280.09
2022-11-05T01:24:24.839Z,94281.78
2022-11-05T01:27:18.860Z,94286.06
2022-11-05T01:30:05.905Z,94278.44
2022-11-05T01:32:39.011Z,94282.72
2022-11-05T01:35:25.875Z,94288.72
2022-11-05T01:37:58.914Z,94287.06
2022-11-05T01:40:49.877Z,94284.50
2022-11-05T01:43:28.924Z,94278.53
2022-11-05T01:46:15.877Z,94279.47
2022-11-05T01:48:48.947Z,94278.66
2022-11-05T01:51:35.870Z,94277.81
2022-11-05T01:54:15.928Z,94268.50
2022-11-05T01:57:08.861Z,94276.13
2022-11-05T01:59:54.854Z,94276.09
2022-11-05T02:02:49.024Z,94276.16
2022-11-05T02:05:42.871Z,94278.66
2022-11-05T02:08:54.883Z,94267.63
2022-11-05T02:11:48.864Z,94273.53
2022-11-05T02:14:42.880Z,94282.84
2022-11-05T02:18:30.853Z,94280.28
2022-11-05T02:21:49.874Z,94283.72
2022-11-05T02:25:08.869Z,94274.38
2022-11-05T02:27:55.884Z,94270.97
2022-11-05T02:30:34.930Z,94281.19
2022-11-05T02:33:46.893Z,94281.19
2022-11-05T02:36:22.955Z,94287.13
2022-11-05T02:39:33.891Z,94272.69
2022-11-05T02:42:31.881Z,94274.38
2022-11-05T02:45:37.877Z,94276.91
2022-11-05T02:48:54.883Z,94280.28
2022-11-05T02:51:30.960Z,94283.72
2022-11-05T02:54:35.882Z,94289.72
2022-11-05T02:57:17.866Z,94286.31
2022-11-05T03:00:35.891Z,94299.09
2022-11-05T03:03:49.875Z,94303.34
2022-11-05T03:06:44.955Z,94302.53
2022-11-05T03:10:20.894Z,94305.91
2022-11-05T03:13:18.905Z,94298.34
2022-11-05T03:16:50.877Z,94311.97
2022-11-05T03:20:24.903Z,94314.50
2022-11-05T03:23:13.303Z,94316.22
2022-11-05T03:26:11.907Z,94307.75
2022-11-05T03:28:56.912Z,94306.03
2022-11-05T03:31:53.901Z,94313.72
2022-11-05T03:34:46.901Z,94312.84
2022-11-05T03:37:24.967Z,94309.41
2022-11-05T03:40:14.896Z,94310.28
2022-11-05T03:42:53.982Z,94307.75
2022-11-05T03:45:47.922Z,94315.38
2022-11-05T03:48:25.013Z,94316.16
2022-11-05T03:51:16.955Z,94313.66
2022-11-05T03:54:05.919Z,94319.50
2022-11-05T03:57:31.921Z,94320.38
2022-11-05T04:00:18.925Z,94315.25
2022-11-05T04:02:58.978Z,94322.91
2022-11-05T04:06:14.018Z,94323.75
2022-11-05T04:09:33.914Z,94326.31
2022-11-05T04:12:38.915Z,94336.50
2022-11-05T04:15:12.024Z,94338.16
2022-11-05T04:17:58.998Z,94340.72
2022-11-05T04:20:51.559Z,94339.00
2022-11-05T04:23:55.925Z,94333.03
2022-11-05T04:26:35.928Z,94333.03
2022-11-05T04:29:40.914Z,94337.25
2022-11-05T04:32:20.918Z,94339.81
2022-11-05T04:35:14.925Z,94342.38
2022-11-05T04:38:08.945Z,94344.06
2022-11-05T04:41:02.929Z,94344.00
2022-11-05T04:43:50.941Z,94344.00
2022-11-05T04:46:30.942Z,94352.53
2022-11-05T04:49:24.938Z,94355.88
2022-11-05T04:52:18.944Z,94360.09
2022-11-05T04:55:05.922Z,94353.25
2022-11-05T04:57:39.018Z,94361.72
2022-11-05T05:00:27.091Z,94356.59
2022-11-05T05:03:00.046Z,94360.88
2022-11-05T05:05:46.947Z,94365.09
2022-11-05T05:08:20.245Z,94371.88
2022-11-05T05:11:14.959Z,94368.47
2022-11-05T05:13:48.046Z,94375.28
2022-11-05T05:16:34.965Z,94373.53
2022-11-05T05:19:08.024Z,94387.13
2022-11-05T05:21:54.934Z,94383.69
2022-11-05T05:24:34.948Z,94385.41
2022-11-05T05:27:28.934Z,94382.84
2022-11-05T05:30:15.989Z,94375.22
2022-11-05T05:32:49.081Z,94377.75
2022-11-05T05:35:28.979Z,94384.56
2022-11-05T05:38:08.961Z,94391.34
2022-11-05T05:40:48.956Z,94393.88
2022-11-05T05:43:46.963Z,94391.31
2022-11-05T05:46:40.961Z,94399.00
2022-11-05T05:49:27.966Z,94404.09
2022-11-05T05:52:07.963Z,94405.78
2022-11-05T05:54:54.971Z,94404.06
2022-11-05T05:57:28.045Z,94419.38
2022-11-05T06:00:15.956Z,94420.19
2022-11-05T06:02:56.012Z,94423.56
2022-11-05T06:05:42.968Z,94421.84
2022-11-05T06:08:22.975Z,94425.19
2022-11-05T06:11:11.052Z,94431.97
2022-11-05T06:13:50.968Z,94447.28
2022-11-05T06:16:47.984Z,94440.44
2022-11-05T06:19:41.978Z,94437.03
2022-11-05T06:22:28.992Z,94442.16
2022-11-05T06:25:02.049Z,94437.88
2022-11-05T06:27:48.996Z,94438.78
2022-11-05T06:30:23.576Z,94448.97
2022-11-05T06:33:13.252Z,94442.97
2022-11-05T06:35:46.047Z,94448.06
2022-11-05T06:38:32.977Z,94453.16
2022-11-05T06:41:10.340Z,94458.25
2022-11-05T06:43:56.979Z,94466.75
2022-11-05T06:46:33.075Z,94467.59
2022-11-05T06:49:19.998Z,94467.63
2022-11-05T06:51:53.043Z,94473.59
2022-11-05T06:54:39.994Z,94477.81
2022-11-05T06:57:19.986Z,94481.25
2022-11-05T07:00:14.017Z,94487.19
2022-11-05T07:03:08.084Z,94495.69
2022-11-05T07:06:02.993Z,94491.41
2022-11-05T07:08:49.996Z,94499.03
2022-11-05T07:11:23.064Z,94494.81
2022-11-05T07:14:10.015Z,94498.22
2022-11-05T07:16:43.068Z,94494.78
2022-11-05T07:19:30.013Z,94494.78
2022-11-05T07:22:03.088Z,94495.69
2022-11-05T07:24:50.015Z,94502.50
2022-11-05T07:27:24.074Z,94505.91
2022-11-05T07:30:13.015Z,94511.00
2022-11-05T07:32:47.114Z,94511.91
2022-11-05T07:35:35.012Z,94500.81
2022-11-05T07:38:15.005Z,94498.34
2022-11-05T07:41:09.016Z,94495.81
2022-11-05T07:43:56.004Z,94496.78
2022-11-05T07:46:29.104Z,94500.22
2022-11-05T07:49:16.026Z,94494.34
2022-11-05T07:51:49.105Z,94503.69
2022-11-05T07:54:36.019Z,94506.28
2022-11-05T07:57:09.093Z,94514.88
2022-11-05T07:59:56.020Z,94514.16
2022-11-05T08:02:29.228Z,94521.84
2022-11-05T08:05:17.028Z,94522.69
2022-11-05T08:07:57.032Z,94530.34
2022-11-05T08:10:52.009Z,94533.78
2022-11-05T08:13:40.019Z,94534.69
2022-11-05T08:16:20.021Z,94536.41
2022-11-05T08:19:07.036Z,94538.97
2022-11-05T08:21:40.085Z,94539.03
2022-11-05T08:24:27.043Z,94542.47
2022-11-05T08:27:00.113Z,94534.88
2022-11-05T08:29:47.012Z,94532.38
2022-11-05T08:32:20.126Z,94543.47
2022-11-05T08:35:07.027Z,94546.00
2022-11-05T08:37:40.115Z,94538.38
2022-11-05T08:40:27.038Z,94546.09
2022-11-05T08:43:03.363Z,94541.91
2022-11-05T08:45:50.039Z,94547.88
2022-11-05T08:48:25.160Z,94558.06
2022-11-05T08:51:12.048Z,94552.22
2022-11-05T08:53:45.112Z,94560.75
2022-11-05T08:56:32.047Z,94559.91
2022-11-05T08:59:05.205Z,94565.03
2022-11-05T09:01:52.177Z,94573.63
2022-11-05T09:04:25.150Z,94574.53
2022-11-05T09:07:12.044Z,94580.50
2022-11-05T09:09:45.106Z,94583.94
2022-11-05T09:12:32.058Z,94589.94
2022-11-05T09:15:05.126Z,94584.94
2022-11-05T09:17:52.054Z,94590.06
2022-11-05T09:20:25.122Z,94592.66
2022-11-05T09:23:13.239Z,94598.59
2022-11-05T09:25:47.175Z,94605.41
2022-11-05T09:28:35.097Z,94604.56
2022-11-05T09:31:13.196Z,94614.78
2022-11-05T09:34:00.055Z,94611.34
2022-11-05T09:36:33.135Z,94614.78
2022-11-05T09:39:20.056Z,94615.63
2022-11-05T09:41:53.109Z,94623.28
2022-11-05T09:45:06.064Z,94625.81
2022-11-05T09:48:03.065Z,94623.25
2022-11-05T09:50:59.067Z,94622.38
2022-11-05T09:53:48.054Z,94619.81
2022-11-05T09:56:34.150Z,94623.16
2022-11-05T09:59:25.053Z,94618.94
2022-11-05T10:02:05.269Z,94621.50
2022-11-05T10:04:55.145Z,94625.75
2022-11-05T10:07:39.070Z,94626.56
2022-11-05T10:11:03.092Z,94625.69
2022-11-05T10:14:01.068Z,94629.19
2022-11-05T10:16:46.090Z,94640.22
2022-11-05T10:19:48.077Z,94643.69
2022-11-05T10:22:23.165Z,94643.69
2022-11-05T10:25:23.065Z,94650.50
2022-11-05T10:28:00.167Z,94656.41
2022-11-05T10:30:47.096Z,94658.09
2022-11-05T10:33:29.143Z,94662.38
2022-11-05T10:36:34.091Z,94659.81
2022-11-05T10:39:16.187Z,94670.03
2022-11-05T10:42:48.092Z,94665.75
2022-11-05T10:45:39.144Z,94670.84
2022-11-05T10:48:56.104Z,94665.75
2022-11-05T10:51:29.186Z,94664.91
2022-11-05T10:54:25.108Z,94663.22
2022-11-05T10:56:58.165Z,94669.16
2022-11-05T10:59:45.102Z,94670.84
2022-11-05T11:02:38.174Z,94669.97
2022-11-05T11:05:47.081Z,94678.44
2022-11-05T11:08:20.190Z,94686.91
2022-11-05T11:11:12.097Z,94692.00
2022-11-05T11:14:10.115Z,94689.44
2022-11-05T11:17:05.105Z,94694.53
2022-11-05T11:19:52.092Z,94687.72
2022-11-05T11:22:34.111Z,94688.53
2022-11-05T11:25:32.110Z,94685.03
2022-11-05T11:28:10.182Z,94679.09
2022-11-05T11:31:03.098Z,94680.75
2022-11-05T11:33:38.261Z,94673.09
2022-11-05T11:36:31.103Z,94679.84
2022-11-05T11:39:20.108Z,94680.75
2022-11-05T11:42:14.128Z,94680.75
2022-11-05T11:44:58.111Z,94681.56
2022-11-05T11:47:50.132Z,94682.38
2022-11-05T11:50:56.117Z,94685.78
2022-11-05T11:53:43.129Z,94689.16
2022-11-05T11:56:33.121Z,94690.78
2022-11-05T12:00:06.716Z,94700.16
2022-11-05T12:03:08.196Z,94701.06
2022-11-05T12:06:45.172Z,94706.16
2022-11-05T12:09:45.130Z,94707.00
2022-11-05T12:13:19.130Z,94707.88
2022-11-05T12:16:24.128Z,94712.09
2022-11-05T12:19:36.138Z,94715.53
2022-11-05T12:23:01.113Z,94713.81
2022-11-05T12:26:00.149Z,94711.28
2022-11-05T12:29:12.227Z,94707.06
2022-11-05T12:32:00.148Z,94725.84
2022-11-05T12:34:50.265Z,94725.84
2022-11-05T12:37:44.124Z,94730.09
2022-11-05T12:40:50.136Z,94730.13
2022-11-05T12:43:40.133Z,94730.94
2022-11-05T12:46:16.265Z,94725.84
2022-11-05T12:49:38.164Z,94728.41
2022-11-05T12:52:17.214Z,94730.94
2022-11-05T12:55:24.134Z,94727.56
2022-11-05T12:58:03.230Z,94726.75
2022-11-05T13:00:58.175Z,94725.91
2022-11-05T13:03:54.266Z,94741.22
2022-11-05T13:06:53.143Z,94746.34
2022-11-05T13:09:37.216Z,94750.59
2022-11-05T13:12:29.166Z,94753.16
2022-11-05T13:15:07.214Z,94748.91
2022-11-05T13:18:02.156Z,94747.22
2022-11-05T13:20:46.165Z,94751.50
2022-11-05T13:23:43.158Z,94748.97
2022-11-05T13:26:46.158Z,94754.91
2022-11-05T13:29:26.530Z,94759.19
2022-11-05T13:32:31.176Z,94767.69
2022-11-05T13:35:14.144Z,94762.59
2022-11-05T13:38:34.191Z,94769.38
2022-11-05T13:41:40.168Z,94770.25
2022-11-05T13:44:32.161Z,94769.38
2022-11-05T13:47:50.176Z,94767.72
2022-11-05T13:50:47.185Z,94771.16
2022-11-05T13:53:52.172Z,94783.03
2022-11-05T13:56:47.180Z,94785.63
2022-11-05T14:00:04.231Z,94788.19
2022-11-05T14:02:58.190Z,94789.88
2022-11-05T14:05:47.287Z,94803.50
2022-11-05T14:08:34.176Z,94802.69
2022-11-05T14:11:36.278Z,94805.28
2022-11-05T14:14:35.171Z,94814.66
2022-11-05T14:17:43.178Z,94819.75
2022-11-05T14:20:39.191Z,94823.19
2022-11-05T14:23:27.285Z,94824.91
2022-11-05T14:26:22.184Z,94836.84
2022-11-05T14:28:56.279Z,94836.84
2022-11-05T14:32:08.673Z,94843.66
2022-11-05T14:35:31.286Z,94830.91
2022-11-05T14:38:28.188Z,94834.38
2022-11-05T14:41:10.033Z,94838.69
2022-11-05T14:44:05.199Z,94841.22
2022-11-05T14:46:59.332Z,94845.50
2022-11-05T14:50:04.206Z,94841.28
2022-11-05T14:52:45.218Z,94837.91
2022-11-05T14:55:40.211Z,94841.31
2022-11-05T14:58:33.381Z,94832.84
2022-11-05T15:01:23.370Z,94836.25
2022-11-05T15:04:33.221Z,94832.00
2022-11-05T15:07:38.199Z,94835.44
2022-11-05T15:10:26.198Z,94839.72
2022-11-05T15:13:15.218Z,94839.72
2022-11-05T15:16:10.273Z,94841.41
2022-11-05T15:18:59.221Z,94838.03
2022-11-05T15:21:34.362Z,94842.31
2022-11-05T15:24:24.200Z,94839.75
2022-11-05T15:27:11.298Z,94840.59
2022-11-05T15:30:01.211Z,94837.22
2022-11-05T15:32:38.344Z,94838.94
2022-11-05T15:35:28.274Z,94837.28
2022-11-05T15:38:06.061Z,94849.13
2022-11-05T15:40:53.239Z,94851.69
2022-11-05T15:43:33.214Z,94855.13
2022-11-05T15:46:33.336Z,94857.69
2022-11-05T15:49:19.224Z,94859.38
2022-11-05T15:52:16.208Z,94868.69
2022-11-05T15:55:20.284Z,94871.25
2022-11-05T15:58:05.418Z,94881.44
2022-11-05T16:00:55.230Z,94887.38
2022-11-05T16:03:45.219Z,94889.97
2022-11-05T16:06:43.245Z,94889.09
2022-11-05T16:09:54.273Z,94893.34
2022-11-05T16:12:51.619Z,94895.03
2022-11-05T16:15:39.238Z,94895.03
2022-11-05T16:18:37.349Z,94900.13
2022-11-05T16:21:29.240Z,94899.28
2022-11-05T16:24:06.596Z,94900.94
2022-11-05T16:27:02.667Z,94906.06
2022-11-05T16:29:40.309Z,94906.91
2022-11-05T16:32:34.274Z,94895.03
2022-11-05T16:35:16.049Z,94905.22
2022-11-05T16:38:02.269Z,94906.94
2022-11-05T16:40:42.270Z,94918.00
2022-11-05T16:43:31.240Z,94915.41
2022-11-05T16:46:06.368Z,94915.41
2022-11-05T16:48:53.305Z,94929.88
2022-11-05T16:51:27.521Z,94929.00
2022-11-05T16:54:14.276Z,94937.50
2022-11-05T16:56:47.476Z,94943.44
2022-11-05T16:59:35.291Z,94948.53
2022-11-05T17:02:11.435Z,94953.66
2022-11-05T17:04:58.277Z,94950.25
2022-11-05T17:07:41.405Z,94950.25
2022-11-05T17:10:36.274Z,94951.94
2022-11-05T17:13:25.295Z,94953.66
2022-11-05T17:15:58.365Z,94954.47
2022-11-05T17:18:46.271Z,94965.50
2022-11-05T17:21:22.299Z,94968.06
2022-11-05T17:24:09.294Z,94970.59
2022-11-05T17:26:42.533Z,94966.34
2022-11-05T17:29:29.356Z,94975.72
2022-11-05T17:32:02.414Z,94978.25
2022-11-05T17:34:49.323Z,94983.34
2022-11-05T17:37:23.079Z,94987.56
2022-11-05T17:40:12.456Z,94989.28
2022-11-05T17:42:52.279Z,94992.66
2022-11-05T17:45:46.305Z,94990.13
2022-11-05T17:48:40.279Z,94988.44
2022-11-05T17:51:27.308Z,94985.91
2022-11-05T17:54:07.303Z,94991.00
2022-11-05T17:56:57.294Z,94983.34
2022-11-05T17:59:37.295Z,94980.81
2022-11-05T18:02:31.411Z,94984.19
2022-11-05T18:05:18.276Z,94987.56
2022-11-05T18:07:52.464Z,94991.84
2022-11-05T18:10:39.343Z,94986.75
2022-11-05T18:13:13.785Z,94991.00
2022-11-05T18:16:01.295Z,94987.63
2022-11-05T18:18:41.339Z,94993.56
2022-11-05T18:21:28.292Z,94995.28
2022-11-05T18:24:08.293Z,94996.16
2022-11-05T18:27:04.317Z,94994.44
2022-11-05T18:29:58.367Z,95001.25
2022-11-05T18:32:45.350Z,94998.69
2022-11-05T18:35:19.380Z,95003.75
2022-11-05T18:38:06.299Z,95005.47
2022-11-05T18:40:46.286Z,95002.91
2022-11-05T18:43:40.298Z,95014.00
2022-11-05T18:46:56.612Z,95019.09
2022-11-05T18:49:23.425Z,95025.03
2022-11-05T18:52:10.300Z,95021.63
2022-11-05T18:54:50.290Z,95024.19
2022-11-05T18:57:40.313Z,95030.97
2022-11-05T19:00:21.348Z,95039.47
2022-11-05T19:03:08.384Z,95036.94
2022-11-05T19:05:41.414Z,95045.41
2022-11-05T19:08:28.295Z,95042.88
2022-11-05T19:11:01.434Z,95041.16
2022-11-05T19:13:51.348Z,95047.13
2022-11-05T19:16:30.464Z,95052.22
2022-11-05T19:19:24.314Z,95056.47
2022-11-05T19:22:18.372Z,95055.63
2022-11-05T19:25:12.320Z,95064.09
2022-11-05T19:28:08.207Z,95066.66
2022-11-05T19:30:55.344Z,95061.56
2022-11-05T19:33:28.496Z,95063.25
2022-11-05T19:36:15.351Z,95060.72
2022-11-05T19:38:57.493Z,95064.97
2022-11-05T19:41:44.374Z,95073.47
2022-11-05T19:44:24.377Z,95079.41
2022-11-05T19:47:11.353Z,95089.59
2022-11-05T19:49:44.413Z,95086.16
2022-11-05T19:52:31.338Z,95093.81
2022-11-05T19:55:11.971Z,95095.53
2022-11-05T19:57:59.348Z,95089.59
2022-11-05T20:00:39.357Z,95092.09
2022-11-05T20:03:33.394Z,95097.22
2022-11-05T20:06:42.368Z,95099.75
2022-11-05T20:09:32.206Z,95102.31
2022-11-05T20:12:05.495Z,95103.13
2022-11-05T20:14:53.389Z,95101.47
2022-11-05T20:17:33.347Z,95108.25
2022-11-05T20:20:27.391Z,95101.47
2022-11-05T20:23:15.374Z,95111.63
2022-11-05T20:25:55.348Z,95113.34
2022-11-05T20:28:50.376Z,95118.44
2022-11-05T20:31:44.371Z,95134.56
2022-11-05T20:34:31.388Z,95126.91
2022-11-05T20:37:11.398Z,95137.13
2022-11-05T20:39:58.377Z,95141.38
2022-11-05T20:42:31.464Z,95141.38
2022-11-05T20:45:18.379Z,95141.34
2022-11-05T20:48:00.422Z,95143.88
2022-11-05T20:50:51.390Z,95142.22
2022-11-05T20:53:24.465Z,95146.47
2022-11-05T20:56:15.386Z,95150.75
2022-11-05T20:58:48.756Z,95155.84
2022-11-05T21:01:40.445Z,95162.66
2022-11-05T21:04:13.453Z,95167.78
2022-11-05T21:07:00.418Z,95169.47
2022-11-05T21:09:42.375Z,95172.88
2022-11-05T21:12:38.424Z,95170.34
2022-11-05T21:15:30.370Z,95163.56
2022-11-05T21:18:10.609Z,95160.19
2022-11-05T21:21:07.412Z,95159.34
2022-11-05T21:23:56.370Z,95167.81
2022-11-05T21:26:37.418Z,95171.28
2022-11-05T21:29:34.377Z,95170.41
2022-11-05T21:32:21.399Z,95170.41
2022-11-05T21:34:54.463Z,95172.13
2022-11-05T21:37:44.150Z,95180.63
2022-11-05T21:40:17.462Z,95175.53
2022-11-05T21:43:05.413Z,95178.94
2022-11-05T21:45:38.773Z,95180.63
2022-11-05T21:48:25.394Z,95170.47
2022-11-05T21:51:26.439Z,95172.19
2022-11-05T21:54:32.416Z,95184.91
2022-11-05T21:57:30.421Z,95184.94
2022-11-05T22:00:25.421Z,95189.19
2022-11-05T22:03:14.423Z,95184.94
2022-11-05T22:05:47.485Z,95190.06
2022-11-05T22:08:34.413Z,95187.53
2022-11-05T22:11:10.458Z,95190.06
2022-11-05T22:13:59.403Z,95187.53
2022-11-05T22:16:32.460Z,95190.06
2022-11-05T22:19:19.419Z,95194.34
2022-11-05T22:21:52.469Z,95186.69
2022-11-05T22:24:40.413Z,95199.41
2022-11-05T22:27:24.412Z,95203.66
2022-11-05T22:30:18.414Z,95206.22
2022-11-05T22:33:05.400Z,95209.63
2022-11-05T22:35:38.452Z,95206.22
2022-11-05T22:38:25.403Z,95214.75
2022-11-05T22:40:58.469Z,95204.56
2022-11-05T22:43:45.412Z,95201.16
2022-11-05T22:46:22.570Z,95207.97
2022-11-05T22:49:09.424Z,95213.06
2022-11-05T22:51:45.483Z,95210.53
2022-11-05T22:54:37.927Z,95212.25
2022-11-05T22:57:12.570Z,95210.56
2022-11-05T22:59:59.413Z,95199.53
2022-11-05T23:02:32.580Z,95206.31
2022-11-05T23:05:19.409Z,95202.06
2022-11-05T23:08:11.475Z,95203.78
2022-11-05T23:11:17.416Z,95203.81
2022-11-05T23:13:57.410Z,95204.66
2022-11-05T23:17:09.437Z,95200.41
2022-11-05T23:20:21.413Z,95202.97
2022-11-05T23:23:36.480Z,95199.56
2022-11-05T23:26:42.417Z,95199.56
2022-11-05T23:29:24.583Z,95208.06
2022-11-05T23:32:32.558Z,95208.94
2022-11-05T23:35:13.490Z,95209.78
2022-11-05T23:38:25.411Z,95206.34
2022-11-05T23:41:31.410Z,95208.06
2022-11-05T23:44:29.429Z,95202.97
2022-11-05T23:47:41.416Z,95194.47
2022-11-05T23:50:28.484Z,95191.09
2022-11-05T23:53:01.496Z,95192.81
2022-11-05T23:55:48.474Z,95196.19
2022-11-05T23:58:22.508Z,95193.66
